Pilot Vessel Akarana — ZMT2938 — position and weather

sailwx.info

Track history (hours):
 
Tides and Currents Weather Stations Pressure Air Temp Water Temp Dewpoint Dewpoint Depression Visibility Wind Speed Wind Dir Waves Ship Positions

Pilot Vessel Akarana

Last reported at 2017-Sep-24 16:36 UTC. Time now 2017-Sep-25 15:29 UTC.
Position S 36°48' E 174°49'.

Length 15 m; draft 1.6 m.

Type: Pilot. MMSI: 512000344.

Date/timePositionNaut miles runAvg speedWind from/ knotsBaromVisibWave heightAir tempDewpointWater temp
2017-Sep-24 16:36S 36°48' E 174°49'327.3
2017-Sep-24 16:31S 36°46' E 174°50'2 3.0
2017-Sep-24 15:54S 36°44' E 174°51'7 1.7
2017-Sep-24 11:49S 36°50' E 174°47'3 0.8
2017-Sep-24 08:21S 36°49' E 174°49'3 0.8
2017-Sep-24 04:34S 36°46' E 174°50'229.7
2017-Sep-24 04:30S 36°44' E 174°51'4 0.8
2017-Sep-24 00:06S 36°47' E 174°48'112.9
2017-Sep-24 00:00S 36°46' E 174°49'1 0.0
2017-Sep-22 01:46S 36°47' E 174°48'  
2017-Sep-19 09:55S 36°51' E 174°47'3 5.6
2017-Sep-19 09:22S 36°48' E 174°49'3 2.0
2017-Sep-19 07:48S 36°51' E 174°47'0 0.7
2017-Sep-19 07:21S 36°50' E 174°47'720.5
2017-Sep-19 07:00S 36°44' E 174°51'7 4.0
2017-Sep-19 05:19S 36°50' E 174°48'411.8
2017-Sep-19 05:00S 36°47' E 174°48'4 0.7
2017-Sep-18 22:50S 36°51' E 174°47'0 0.0
2017-Sep-18 22:18S 36°51' E 174°47'0 0.0
2017-Sep-18 22:00S 36°51' E 174°47'1 0.1
2017-Sep-18 17:31S 36°50' E 174°48'031.0
2017-Sep-18 17:31S 36°51' E 174°48'612.9
2017-Sep-18 17:00S 36°45' E 174°51'6 9.9
2017-Sep-18 16:22S 36°50' E 174°48'820.3
2017-Sep-18 15:57S 36°43' E 174°52'9 7.1
2017-Sep-18 14:44S 36°51' E 174°47'0 0.0
2017-Sep-18 14:16S 36°51' E 174°47'0 0.0
2017-Sep-18 14:00S 36°51' E 174°47'0 0.0
2017-Sep-18 13:30S 36°51' E 174°47'0 0.0
2017-Sep-18 13:00S 36°51' E 174°47'1 1.1
2017-Sep-18 12:27S 36°50' E 174°48'3 5.8
2017-Sep-18 11:58S 36°48' E 174°49'3 7.0
2017-Sep-18 11:30S 36°51' E 174°47'0 0.0
2017-Sep-18 11:00S 36°51' E 174°47'0 0.0
2017-Sep-18 10:30S 36°51' E 174°47'3 4.9
2017-Sep-18 09:49S 36°48' E 174°48'3 9.3
2017-Sep-18 09:31S 36°50' E 174°48'3 4.2
2017-Sep-18 08:47S 36°47' E 174°48'310.4
2017-Sep-18 08:30S 36°50' E 174°49'2 0.4
2017-Sep-18 03:41S 36°50' E 174°46'1 1.0
2017-Sep-18 02:16S 36°50' E 174°48'2 5.6
2017-Sep-18 01:51S 36°48' E 174°49'  
2017-Sep-14 21:15S 36°51' E 174°47'  
Track history (hours):
 
Tides and Currents Weather Stations Pressure Air Temp Water Temp Dewpoint Dewpoint Depression Visibility Wind Speed Wind Dir Waves Ship Positions

Pilot Vessel Akarana

Last reported at 2017-Sep-24 16:36 UTC. Time now 2017-Sep-25 15:29 UTC.
Position S 36°48' E 174°49'.

Length 15 m; draft 1.6 m.

Type: Pilot. MMSI: 512000344.

Date/timePositionNaut miles runAvg speedWind from/ knotsBaromVisibWave heightAir tempDewpointWater temp
2017-Sep-24 16:36S 36°48' E 174°49'327.3
2017-Sep-24 16:31S 36°46' E 174°50'2 3.0
2017-Sep-24 15:54S 36°44' E 174°51'7 1.7
2017-Sep-24 11:49S 36°50' E 174°47'3 0.8
2017-Sep-24 08:21S 36°49' E 174°49'3 0.8
2017-Sep-24 04:34S 36°46' E 174°50'229.7
2017-Sep-24 04:30S 36°44' E 174°51'4 0.8
2017-Sep-24 00:06S 36°47' E 174°48'112.9
2017-Sep-24 00:00S 36°46' E 174°49'1 0.0
2017-Sep-22 01:46S 36°47' E 174°48'  
2017-Sep-19 09:55S 36°51' E 174°47'3 5.6
2017-Sep-19 09:22S 36°48' E 174°49'3 2.0
2017-Sep-19 07:48S 36°51' E 174°47'0 0.7
2017-Sep-19 07:21S 36°50' E 174°47'720.5
2017-Sep-19 07:00S 36°44' E 174°51'7 4.0
2017-Sep-19 05:19S 36°50' E 174°48'411.8
2017-Sep-19 05:00S 36°47' E 174°48'4 0.7
2017-Sep-18 22:50S 36°51' E 174°47'0 0.0
2017-Sep-18 22:18S 36°51' E 174°47'0 0.0
2017-Sep-18 22:00S 36°51' E 174°47'1 0.1
2017-Sep-18 17:31S 36°50' E 174°48'031.0
2017-Sep-18 17:31S 36°51' E 174°48'612.9
2017-Sep-18 17:00S 36°45' E 174°51'6 9.9
2017-Sep-18 16:22S 36°50' E 174°48'820.3
2017-Sep-18 15:57S 36°43' E 174°52'9 7.1
2017-Sep-18 14:44S 36°51' E 174°47'0 0.0
2017-Sep-18 14:16S 36°51' E 174°47'0 0.0
2017-Sep-18 14:00S 36°51' E 174°47'0 0.0
2017-Sep-18 13:30S 36°51' E 174°47'0 0.0
2017-Sep-18 13:00S 36°51' E 174°47'1 1.1
2017-Sep-18 12:27S 36°50' E 174°48'3 5.8
2017-Sep-18 11:58S 36°48' E 174°49'3 7.0
2017-Sep-18 11:30S 36°51' E 174°47'0 0.0
2017-Sep-18 11:00S 36°51' E 174°47'0 0.0
2017-Sep-18 10:30S 36°51' E 174°47'3 4.9
2017-Sep-18 09:49S 36°48' E 174°48'3 9.3
2017-Sep-18 09:31S 36°50' E 174°48'3 4.2
2017-Sep-18 08:47S 36°47' E 174°48'310.4
2017-Sep-18 08:30S 36°50' E 174°49'2 0.4
2017-Sep-18 03:41S 36°50' E 174°46'1 1.0
2017-Sep-18 02:16S 36°50' E 174°48'2 5.6
2017-Sep-18 01:51S 36°48' E 174°49'  
2017-Sep-14 21:15S 36°51' E 174°47'  

Dump ship's entire track history